»·PEaware :: SWA1980 KLAS-KSAN

SWA1980 :: KLAS-KSAN

FLIGHT INFORMATION

Flight Status: Arrived
Operator:
Southwest Airlines
More flights by this operator :: More flights under this callsign
Pilot: Martin A. (6413)
Aircraft: BOEING 737-800
(B738)
More flights by this aircraft type
Origin: KLAS McCarran Intl
United States
Destination: KSAN San Diego Intl-Lindbergh
United States
More flights between these airports :: More routes between these airports
Route: +BOACH8 LVELL LUCKI1
File this flight plan on PilotEdge
Remarks:
Altitude:
(Current/Filed)
34,000ft
Speed:
(Current/Filed)
440kts
Departed: 01-Dec-17 07:54 PM
Arrived: 01-Dec-17 08:40 PM
Distance/Time
Traveled:
225nm/0:46
Distance/Time
To Go:
Arrived

Flight Plot

Page will automatically refresh every two minutes.

Flight plan parsing failed; only flown route is shown


Map Options




Map Legend


Flown Route
Filed Route
Departure Airport
Arrival Airport
Navaid (VOR, NDB)
Fix

Horizontal Profiles

Position Reports

Time Latitude Longitude Heading Altitude Ground
Speed
01-Dec-17 19:36 36.082453 -115.152512 321 2111ft 0kts
01-Dec-17 19:37 36.082453 -115.152512 321 2111ft 0kts
01-Dec-17 19:38 36.082453 -115.152512 321 2111ft 0kts
01-Dec-17 19:39 36.082453 -115.152512 321 2111ft 0kts
01-Dec-17 19:40 36.082453 -115.152512 321 2111ft 0kts
01-Dec-17 19:41 36.082453 -115.152512 321 2111ft 0kts
01-Dec-17 19:42 36.082453 -115.152512 321 2111ft 0kts
01-Dec-17 19:43 36.082453 -115.152512 321 2111ft 0kts
01-Dec-17 19:44 36.082453 -115.152512 321 2111ft 0kts
01-Dec-17 19:45 36.082453 -115.152512 321 2111ft 0kts
01-Dec-17 19:46 36.082293 -115.152356 321 2111ft 2kts
01-Dec-17 19:47 36.081823 -115.151898 321 2111ft 2kts
01-Dec-17 19:48 36.081442 -115.151432 295 2110ft 2kts
01-Dec-17 19:49 36.081456 -115.150713 240 2107ft 2kts
01-Dec-17 19:50 36.081598 -115.150495 223 2106ft 0kts
01-Dec-17 19:51 36.081598 -115.150495 223 2106ft 0kts
01-Dec-17 19:52 36.081583 -115.150513 223 2106ft 0kts
01-Dec-17 19:53 36.079036 -115.151089 175 2113ft 13kts
01-Dec-17 19:54 36.077597 -115.144670 90 2094ft 26kts
01-Dec-17 19:55 36.077540 -115.134883 92 2064ft 26kts
01-Dec-17 19:56 36.077546 -115.126641 90 2043ft 20kts
01-Dec-17 19:57 36.077417 -115.121485 129 2037ft 0kts
01-Dec-17 19:58 36.077242 -115.121314 153 2037ft 3kts
01-Dec-17 19:59 36.076415 -115.135180 269 2066ft 148kts
01-Dec-17 20:00 36.075547 -115.199224 266 4078ft 242kts
01-Dec-17 20:01 36.072051 -115.289519 265 7029ft 273kts
01-Dec-17 20:02 36.021253 -115.351303 183 7008ft 282kts
01-Dec-17 20:03 35.946683 -115.318842 156 7064ft 310kts
01-Dec-17 20:04 35.862541 -115.313334 187 11409ft 306kts
01-Dec-17 20:05 35.773255 -115.305521 177 14588ft 337kts
01-Dec-17 20:06 35.677752 -115.295052 182 17837ft 352kts
01-Dec-17 20:07 35.580499 -115.298553 185 19102ft 358kts
01-Dec-17 20:08 35.479978 -115.302530 185 19105ft 362kts
01-Dec-17 20:09 35.377357 -115.306548 185 21987ft 375kts
01-Dec-17 20:10 35.271266 -115.310732 185 23648ft 392kts
01-Dec-17 20:11 35.163726 -115.314938 186 24060ft 389kts
01-Dec-17 20:12 35.056004 -115.319168 185 24049ft 387kts
01-Dec-17 20:13 34.947976 -115.323426 184 24045ft 393kts
01-Dec-17 20:14 34.841725 -115.327579 183 24044ft 394kts
01-Dec-17 20:15 34.735853 -115.350595 201 24047ft 391kts
01-Dec-17 20:16 34.632874 -115.395580 201 24090ft 402kts
01-Dec-17 20:17 34.525486 -115.442435 201 24145ft 433kts
01-Dec-17 20:18 34.412287 -115.491780 201 24136ft 433kts
01-Dec-17 20:19 34.301572 -115.547232 212 24144ft 431kts
01-Dec-17 20:20 34.198736 -115.620177 204 24123ft 432kts
01-Dec-17 20:21 34.109372 -115.662445 202 24138ft 433kts
01-Dec-17 20:22 33.997838 -115.715079 202 24084ft 432kts
01-Dec-17 20:23 33.893572 -115.764776 203 24010ft 431kts
01-Dec-17 20:24 33.782668 -115.819078 203 24009ft 431kts
01-Dec-17 20:25 33.671221 -115.871518 202 24009ft 431kts
01-Dec-17 20:26 33.559533 -115.923650 202 23996ft 418kts
01-Dec-17 20:27 33.480058 -116.004548 236 23765ft 380kts
01-Dec-17 20:28 33.419856 -116.108219 236 23429ft 379kts
01-Dec-17 20:29 33.359978 -116.211284 236 23091ft 377kts
01-Dec-17 20:30 33.276964 -116.285530 207 21623ft 380kts
01-Dec-17 20:31 33.184302 -116.339636 207 19116ft 365kts
01-Dec-17 20:32 33.095440 -116.391602 206 16579ft 345kts
01-Dec-17 20:33 33.011951 -116.440682 209 14198ft 330kts
01-Dec-17 20:34 32.941839 -116.508439 219 12476ft 324kts
01-Dec-17 20:35 32.874957 -116.575892 220 10874ft 317kts
01-Dec-17 20:36 32.809775 -116.641575 220 9306ft 297kts
01-Dec-17 20:37 32.758647 -116.710269 240 7888ft 277kts
01-Dec-17 20:38 32.721659 -116.788204 240 6507ft 266kts
01-Dec-17 20:39 32.692441 -116.866164 249 5252ft 254kts
01-Dec-17 20:40 32.675323 -116.943614 277 4181ft 239kts
01-Dec-17 20:41 32.691350 -117.015995 286 3019ft 216kts
01-Dec-17 20:42 32.706996 -117.080225 286 2052ft 222kts
01-Dec-17 20:43 32.722252 -117.144014 286 726ft 179kts
01-Dec-17 20:44 32.733991 -117.191449 287 21ft 97kts
01-Dec-17 20:45 32.734829 -117.198274 165 17ft 1kts
01-Dec-17 20:46 32.734168 -117.196412 105 18ft 5kts
01-Dec-17 20:47 32.733270 -117.196037 199 19ft 0kts
01-Dec-17 20:48 32.733270 -117.196037 199 19ft 0kts
01-Dec-17 20:49 32.733270 -117.196037 199 19ft 0kts
01-Dec-17 20:50 32.733270 -117.196037 199 19ft 0kts
01-Dec-17 20:51 32.733270 -117.196037 199 19ft 0kts

Navigation Log

Ident Type
Flight plan parsing failed, navigation log unavailable